MSC Alghero — 3EVX2 — position and weather

sailwx.info

Track history (hours):
 
Tides and Currents Weather Stations Pressure Air Temp Water Temp Dewpoint Dewpoint Depression Visibility Wind Speed Wind Dir Waves Ship Positions

MSC Alghero

Last reported at 2018-Jan-21 06:58 UTC. Time now 2018-Jan-21 07:08 UTC.
Position N 51°18' E 004°16'.

Length 300 m; draft 13 m.

Type: Cargo ship. MMSI: 351819000.

Date/timePositionNaut miles runAvg speedWind from/ knotsBaromVisibWave heightAir tempDewpointWater temp
2018-Jan-21 06:58N 51°18' E 004°16'0 0.0
2018-Jan-21 06:28N 51°18' E 004°16'0 0.0
2018-Jan-21 05:58N 51°18' E 004°16'0 0.0
2018-Jan-21 05:28N 51°18' E 004°16'0 0.0
2018-Jan-21 04:58N 51°18' E 004°16'0 0.0
2018-Jan-21 04:28N 51°18' E 004°16'0 0.0
2018-Jan-21 03:58N 51°18' E 004°16'0 0.0
2018-Jan-21 03:28N 51°18' E 004°16'0 0.0
2018-Jan-21 02:58N 51°18' E 004°16'0 0.0
2018-Jan-21 02:28N 51°18' E 004°16'0 0.0
2018-Jan-21 01:55N 51°18' E 004°16'0 0.0
2018-Jan-21 01:28N 51°18' E 004°16'0 0.0
2018-Jan-21 00:58N 51°18' E 004°16'0 0.0
2018-Jan-21 00:28N 51°18' E 004°16'0 0.0
2018-Jan-20 23:58N 51°18' E 004°16'0 0.0
2018-Jan-20 23:28N 51°18' E 004°16'0 0.0
2018-Jan-20 22:58N 51°18' E 004°16'0 0.0
2018-Jan-20 22:28N 51°18' E 004°16'0 0.0
2018-Jan-20 21:55N 51°18' E 004°16'0 0.0
2018-Jan-20 21:28N 51°18' E 004°16'0 0.0
2018-Jan-20 20:58N 51°18' E 004°16'0 0.0
2018-Jan-20 20:29N 51°18' E 004°16'1 2.1
2018-Jan-20 20:00N 51°19' E 004°16'5 9.2
2018-Jan-20 19:30N 51°23' E 004°13'611.1
2018-Jan-20 19:00N 51°22' E 004°04'5 9.5
2018-Jan-20 18:30N 51°25' E 003°58'713.2
2018-Jan-20 18:00N 51°21' E 003°50'713.0
2018-Jan-20 17:30N 51°25' E 003°42'611.3
2018-Jan-20 17:00N 51°25' E 003°33'612.2
2018-Jan-20 16:31N 51°24' E 003°23'918.3
2018-Jan-20 16:01N 51°24' E 003°09'713.2
2018-Jan-20 15:31N 51°27' E 002°59'815.2
2018-Jan-20 15:01N 51°33' E 003°07'815.2
2018-Jan-20 14:30N 51°40' E 003°11'713.0
2018-Jan-20 13:56N 51°47' E 003°15'23 9.8
2018-Jan-20 11:34N 52°03' E 003°41'114.2
2018-Jan-20 11:31N 52°03' E 003°43'611.1
2018-Jan-20 11:00N 52°02' E 003°52'510.3
2018-Jan-20 10:30N 52°01' E 003°60'4 8.7
2018-Jan-20 10:01N 51°58' E 004°05'1 1.4
2018-Jan-20 09:30N 51°58' E 004°04'0 0.0
2018-Jan-20 09:00N 51°58' E 004°04'0 0.0
2018-Jan-20 08:30N 51°58' E 004°04'0 0.0
2018-Jan-20 08:00N 51°58' E 004°04'0 0.0
2018-Jan-20 07:30N 51°58' E 004°04'0 0.0
2018-Jan-20 07:00N 51°58' E 004°04'0 0.0
2018-Jan-20 06:30N 51°58' E 004°04'0 0.0
2018-Jan-20 06:00N 51°58' E 004°04'0 0.0
2018-Jan-20 05:30N 51°58' E 004°04'0 0.0
2018-Jan-20 05:00N 51°58' E 004°04'0 0.0
2018-Jan-20 04:30N 51°58' E 004°04'0 0.0
2018-Jan-20 04:00N 51°58' E 004°04'0 0.0
2018-Jan-20 03:30N 51°58' E 004°04'0 0.0
2018-Jan-20 03:00N 51°58' E 004°04'0 0.0
2018-Jan-20 02:27N 51°58' E 004°04'0 0.0
2018-Jan-20 02:00N 51°58' E 004°04'0 0.0
2018-Jan-20 01:30N 51°58' E 004°04'0 0.0
2018-Jan-20 01:00N 51°58' E 004°04'0 0.0
2018-Jan-20 00:30N 51°58' E 004°04'0 0.0
2018-Jan-20 00:00N 51°58' E 004°04'0 0.0
2018-Jan-19 23:30N 51°58' E 004°04'0 0.0
2018-Jan-19 23:00N 51°58' E 004°04'0 0.0
2018-Jan-19 22:30N 51°58' E 004°04'0 0.0
2018-Jan-19 22:00N 51°58' E 004°04'0 0.0
2018-Jan-19 21:30N 51°58' E 004°04'0 0.0
2018-Jan-19 21:00N 51°58' E 004°04'0 0.0
2018-Jan-19 20:30N 51°58' E 004°04'0 0.0
2018-Jan-19 20:00N 51°58' E 004°04'0 0.0
2018-Jan-19 19:30N 51°58' E 004°04'0 0.0
2018-Jan-19 19:00N 51°58' E 004°04'0 0.0
2018-Jan-19 18:30N 51°58' E 004°04'0 0.0
2018-Jan-19 18:00N 51°58' E 004°04'0 0.0
2018-Jan-19 17:30N 51°58' E 004°04'0 0.0
2018-Jan-19 17:00N 51°58' E 004°04'0 0.0
2018-Jan-19 16:30N 51°58' E 004°04'0 0.0
2018-Jan-19 16:00N 51°58' E 004°04'0 0.0
2018-Jan-19 15:30N 51°58' E 004°04'0 0.0
2018-Jan-19 15:00N 51°58' E 004°04'0 0.0
2018-Jan-19 14:27N 51°58' E 004°04'0 0.0
2018-Jan-19 14:00N 51°58' E 004°04'0 0.0
2018-Jan-19 13:30N 51°58' E 004°04'0 0.0
2018-Jan-19 13:00N 51°58' E 004°04'0 0.0
2018-Jan-19 12:30N 51°58' E 004°04'0 0.0
2018-Jan-19 12:00N 51°58' E 004°04'0 0.0
2018-Jan-19 11:30N 51°58' E 004°04'0 0.0
2018-Jan-19 10:57N 51°58' E 004°04'0 0.0
2018-Jan-19 10:27N 51°58' E 004°04'0 0.0
2018-Jan-19 10:00N 51°58' E 004°04'0 0.0
2018-Jan-19 09:30N 51°58' E 004°04'0 0.0
2018-Jan-19 09:00N 51°58' E 004°04'0 0.0
2018-Jan-19 08:30N 51°58' E 004°04'0 0.0
2018-Jan-19 08:00N 51°58' E 004°04'0 0.0
2018-Jan-19 07:30N 51°58' E 004°04'0 0.0
2018-Jan-19 07:00N 51°58' E 004°04'0 0.0
2018-Jan-19 06:30N 51°58' E 004°04'0 0.0
2018-Jan-19 06:00N 51°58' E 004°04'0 0.0
2018-Jan-19 05:30N 51°58' E 004°04'0 0.0
2018-Jan-19 05:00N 51°58' E 004°04'0 0.0
2018-Jan-19 04:30N 51°58' E 004°04'0 0.0
2018-Jan-19 04:00N 51°58' E 004°04'0 0.0
2018-Jan-19 03:27N 51°58' E 004°04'0 0.0
2018-Jan-19 03:00N 51°58' E 004°04'0 0.0
2018-Jan-19 02:30N 51°58' E 004°04'0 0.0
2018-Jan-19 01:57N 51°58' E 004°04'0 0.0
2018-Jan-19 01:27N 51°58' E 004°04'0 0.0
2018-Jan-19 01:00N 51°58' E 004°04'0 0.0
2018-Jan-19 00:27N 51°58' E 004°04'0 0.0
2018-Jan-19 00:00N 51°58' E 004°04'0 0.0
2018-Jan-18 23:30N 51°58' E 004°04'0 0.0
2018-Jan-18 22:57N 51°58' E 004°04'0 0.0
2018-Jan-18 22:30N 51°58' E 004°04'0 0.0
2018-Jan-18 21:57N 51°58' E 004°04'0 0.0
2018-Jan-18 21:30N 51°58' E 004°04'0 0.0
2018-Jan-18 21:00N 51°58' E 004°04'0 0.0
2018-Jan-18 20:30N 51°58' E 004°04'0 0.0
2018-Jan-18 20:00N 51°58' E 004°04'0 0.0
2018-Jan-18 19:30N 51°58' E 004°04'0 0.0
2018-Jan-18 18:57N 51°58' E 004°04'0 0.0
2018-Jan-18 18:30N 51°58' E 004°04'0 0.0
2018-Jan-18 18:00N 51°58' E 004°04'1 2.7
2018-Jan-18 17:30N 51°59' E 004°05'4 8.7
2018-Jan-18 17:00N 52°00' E 003°59'816.3
2018-Jan-18 16:30N 52°03' E 003°46'2 4.7
2018-Jan-18 16:00N 52°04' E 003°42'510.8
2018-Jan-18 15:30N 52°06' E 003°35'713.1
2018-Jan-18 15:00N 52°09' E 003°25'  
2018-Jan-12 10:54N 35°58' W 005°55'718.3
2018-Jan-12 10:29N 35°58' W 005°46'816.7
2018-Jan-12 10:00N 35°57' W 005°36'612.2
2018-Jan-12 09:30N 35°54' W 005°30'0 0.4
2018-Jan-12 08:56N 35°54' W 005°29'0 0.0
2018-Jan-12 08:30N 35°54' W 005°29'0 0.0
2018-Jan-12 07:59N 35°54' W 005°29'0 0.0
2018-Jan-12 07:29N 35°54' W 005°29'0 0.0
2018-Jan-12 06:53N 35°54' W 005°29'0 0.0
2018-Jan-12 06:30N 35°54' W 005°29'0 0.0
2018-Jan-12 05:59N 35°54' W 005°29'0 0.0
2018-Jan-12 05:30N 35°54' W 005°29'0 0.0
2018-Jan-12 04:59N 35°54' W 005°29'0 0.0
2018-Jan-12 04:26N 35°54' W 005°29'0 0.0
2018-Jan-12 04:00N 35°54' W 005°29'0 0.0
2018-Jan-12 03:29N 35°54' W 005°29'0 0.0
2018-Jan-12 02:59N 35°54' W 005°29'0 0.0
2018-Jan-12 02:30N 35°54' W 005°29'0 0.0
2018-Jan-12 01:59N 35°54' W 005°29'0 0.0
2018-Jan-12 01:29N 35°54' W 005°29'0 0.0
2018-Jan-12 00:59N 35°54' W 005°29'0 0.0
2018-Jan-12 00:30N 35°54' W 005°29'0 0.4
2018-Jan-12 00:01N 35°54' W 005°30'2 3.5
2018-Jan-11 23:30N 35°55' W 005°31'2 4.3
2018-Jan-11 23:00N 35°54' W 005°34'1 1.1
2018-Jan-11 22:30N 35°54' W 005°34'1 1.2
2018-Jan-11 21:58N 35°54' W 005°34'1 1.2
2018-Jan-11 21:29N 35°54' W 005°34'1 1.3
2018-Jan-11 21:00N 35°54' W 005°34'2 4.3
2018-Jan-11 20:28N 35°56' W 005°31'510.6
2018-Jan-11 20:00N 35°59' W 005°27'5 9.7
2018-Jan-11 19:30N 36°00' W 005°21'4 8.9
2018-Jan-11 19:00N 36°02' W 005°16'4 7.0
2018-Jan-11 18:30N 36°00' W 005°12'5 9.9
2018-Jan-11 17:59N 35°58' W 005°06'510.3
2018-Jan-11 17:30N 35°58' W 004°60'1 2.3
2018-Jan-11 16:57N 35°58' W 005°01'1 2.7
2018-Jan-11 16:29N 35°58' W 005°03'2 3.2
2018-Jan-11 15:59N 35°58' W 005°05'2 3.3
2018-Jan-11 15:30N 35°59' W 005°07'2 3.4
2018-Jan-11 15:00N 35°59' W 005°09'2 3.6
2018-Jan-11 14:29N 35°59' W 005°11'2 5.0
2018-Jan-11 14:00N 35°59' W 005°14'713.4
2018-Jan-11 13:31N 35°58' W 005°22'713.8
2018-Jan-11 13:00N 35°56' W 005°30'3 6.5
2018-Jan-11 12:30N 35°54' W 005°34'4 7.3
2018-Jan-11 12:00N 35°57' W 005°32'510.4
2018-Jan-11 11:30N 35°59' W 005°26'510.1
2018-Jan-11 11:00N 36°01' W 005°20'510.9
2018-Jan-11 10:30N 36°02' W 005°13'611.5
2018-Jan-11 10:00N 36°04' W 005°06'611.7
2018-Jan-11 09:31N 36°05' W 004°59'714.4
2018-Jan-11 09:00N 36°06' W 004°50'817.2
2018-Jan-11 08:30N 36°08' W 004°40'1019.2
2018-Jan-11 08:00N 36°09' W 004°28'  
Track history (hours):
 
Tides and Currents Weather Stations Pressure Air Temp Water Temp Dewpoint Dewpoint Depression Visibility Wind Speed Wind Dir Waves Ship Positions

MSC Alghero

Last reported at 2018-Jan-21 06:58 UTC. Time now 2018-Jan-21 07:08 UTC.
Position N 51°18' E 004°16'.

Length 300 m; draft 13 m.

Type: Cargo ship. MMSI: 351819000.

Date/timePositionNaut miles runAvg speedWind from/ knotsBaromVisibWave heightAir tempDewpointWater temp
2018-Jan-21 06:58N 51°18' E 004°16'0 0.0
2018-Jan-21 06:28N 51°18' E 004°16'0 0.0
2018-Jan-21 05:58N 51°18' E 004°16'0 0.0
2018-Jan-21 05:28N 51°18' E 004°16'0 0.0
2018-Jan-21 04:58N 51°18' E 004°16'0 0.0
2018-Jan-21 04:28N 51°18' E 004°16'0 0.0
2018-Jan-21 03:58N 51°18' E 004°16'0 0.0
2018-Jan-21 03:28N 51°18' E 004°16'0 0.0
2018-Jan-21 02:58N 51°18' E 004°16'0 0.0
2018-Jan-21 02:28N 51°18' E 004°16'0 0.0
2018-Jan-21 01:55N 51°18' E 004°16'0 0.0
2018-Jan-21 01:28N 51°18' E 004°16'0 0.0
2018-Jan-21 00:58N 51°18' E 004°16'0 0.0
2018-Jan-21 00:28N 51°18' E 004°16'0 0.0
2018-Jan-20 23:58N 51°18' E 004°16'0 0.0
2018-Jan-20 23:28N 51°18' E 004°16'0 0.0
2018-Jan-20 22:58N 51°18' E 004°16'0 0.0
2018-Jan-20 22:28N 51°18' E 004°16'0 0.0
2018-Jan-20 21:55N 51°18' E 004°16'0 0.0
2018-Jan-20 21:28N 51°18' E 004°16'0 0.0
2018-Jan-20 20:58N 51°18' E 004°16'0 0.0
2018-Jan-20 20:29N 51°18' E 004°16'1 2.1
2018-Jan-20 20:00N 51°19' E 004°16'5 9.2
2018-Jan-20 19:30N 51°23' E 004°13'611.1
2018-Jan-20 19:00N 51°22' E 004°04'5 9.5
2018-Jan-20 18:30N 51°25' E 003°58'713.2
2018-Jan-20 18:00N 51°21' E 003°50'713.0
2018-Jan-20 17:30N 51°25' E 003°42'611.3
2018-Jan-20 17:00N 51°25' E 003°33'612.2
2018-Jan-20 16:31N 51°24' E 003°23'918.3
2018-Jan-20 16:01N 51°24' E 003°09'713.2
2018-Jan-20 15:31N 51°27' E 002°59'815.2
2018-Jan-20 15:01N 51°33' E 003°07'815.2
2018-Jan-20 14:30N 51°40' E 003°11'713.0
2018-Jan-20 13:56N 51°47' E 003°15'23 9.8
2018-Jan-20 11:34N 52°03' E 003°41'114.2
2018-Jan-20 11:31N 52°03' E 003°43'611.1
2018-Jan-20 11:00N 52°02' E 003°52'510.3
2018-Jan-20 10:30N 52°01' E 003°60'4 8.7
2018-Jan-20 10:01N 51°58' E 004°05'1 1.4
2018-Jan-20 09:30N 51°58' E 004°04'0 0.0
2018-Jan-20 09:00N 51°58' E 004°04'0 0.0
2018-Jan-20 08:30N 51°58' E 004°04'0 0.0
2018-Jan-20 08:00N 51°58' E 004°04'0 0.0
2018-Jan-20 07:30N 51°58' E 004°04'0 0.0
2018-Jan-20 07:00N 51°58' E 004°04'0 0.0
2018-Jan-20 06:30N 51°58' E 004°04'0 0.0
2018-Jan-20 06:00N 51°58' E 004°04'0 0.0
2018-Jan-20 05:30N 51°58' E 004°04'0 0.0
2018-Jan-20 05:00N 51°58' E 004°04'0 0.0
2018-Jan-20 04:30N 51°58' E 004°04'0 0.0
2018-Jan-20 04:00N 51°58' E 004°04'0 0.0
2018-Jan-20 03:30N 51°58' E 004°04'0 0.0
2018-Jan-20 03:00N 51°58' E 004°04'0 0.0
2018-Jan-20 02:27N 51°58' E 004°04'0 0.0
2018-Jan-20 02:00N 51°58' E 004°04'0 0.0
2018-Jan-20 01:30N 51°58' E 004°04'0 0.0
2018-Jan-20 01:00N 51°58' E 004°04'0 0.0
2018-Jan-20 00:30N 51°58' E 004°04'0 0.0
2018-Jan-20 00:00N 51°58' E 004°04'0 0.0
2018-Jan-19 23:30N 51°58' E 004°04'0 0.0
2018-Jan-19 23:00N 51°58' E 004°04'0 0.0
2018-Jan-19 22:30N 51°58' E 004°04'0 0.0
2018-Jan-19 22:00N 51°58' E 004°04'0 0.0
2018-Jan-19 21:30N 51°58' E 004°04'0 0.0
2018-Jan-19 21:00N 51°58' E 004°04'0 0.0
2018-Jan-19 20:30N 51°58' E 004°04'0 0.0
2018-Jan-19 20:00N 51°58' E 004°04'0 0.0
2018-Jan-19 19:30N 51°58' E 004°04'0 0.0
2018-Jan-19 19:00N 51°58' E 004°04'0 0.0
2018-Jan-19 18:30N 51°58' E 004°04'0 0.0
2018-Jan-19 18:00N 51°58' E 004°04'0 0.0
2018-Jan-19 17:30N 51°58' E 004°04'0 0.0
2018-Jan-19 17:00N 51°58' E 004°04'0 0.0
2018-Jan-19 16:30N 51°58' E 004°04'0 0.0
2018-Jan-19 16:00N 51°58' E 004°04'0 0.0
2018-Jan-19 15:30N 51°58' E 004°04'0 0.0
2018-Jan-19 15:00N 51°58' E 004°04'0 0.0
2018-Jan-19 14:27N 51°58' E 004°04'0 0.0
2018-Jan-19 14:00N 51°58' E 004°04'0 0.0
2018-Jan-19 13:30N 51°58' E 004°04'0 0.0
2018-Jan-19 13:00N 51°58' E 004°04'0 0.0
2018-Jan-19 12:30N 51°58' E 004°04'0 0.0
2018-Jan-19 12:00N 51°58' E 004°04'0 0.0
2018-Jan-19 11:30N 51°58' E 004°04'0 0.0
2018-Jan-19 10:57N 51°58' E 004°04'0 0.0
2018-Jan-19 10:27N 51°58' E 004°04'0 0.0
2018-Jan-19 10:00N 51°58' E 004°04'0 0.0
2018-Jan-19 09:30N 51°58' E 004°04'0 0.0
2018-Jan-19 09:00N 51°58' E 004°04'0 0.0
2018-Jan-19 08:30N 51°58' E 004°04'0 0.0
2018-Jan-19 08:00N 51°58' E 004°04'0 0.0
2018-Jan-19 07:30N 51°58' E 004°04'0 0.0
2018-Jan-19 07:00N 51°58' E 004°04'0 0.0
2018-Jan-19 06:30N 51°58' E 004°04'0 0.0
2018-Jan-19 06:00N 51°58' E 004°04'0 0.0
2018-Jan-19 05:30N 51°58' E 004°04'0 0.0
2018-Jan-19 05:00N 51°58' E 004°04'0 0.0
2018-Jan-19 04:30N 51°58' E 004°04'0 0.0
2018-Jan-19 04:00N 51°58' E 004°04'0 0.0
2018-Jan-19 03:27N 51°58' E 004°04'0 0.0
2018-Jan-19 03:00N 51°58' E 004°04'0 0.0
2018-Jan-19 02:30N 51°58' E 004°04'0 0.0
2018-Jan-19 01:57N 51°58' E 004°04'0 0.0
2018-Jan-19 01:27N 51°58' E 004°04'0 0.0
2018-Jan-19 01:00N 51°58' E 004°04'0 0.0
2018-Jan-19 00:27N 51°58' E 004°04'0 0.0
2018-Jan-19 00:00N 51°58' E 004°04'0 0.0
2018-Jan-18 23:30N 51°58' E 004°04'0 0.0
2018-Jan-18 22:57N 51°58' E 004°04'0 0.0
2018-Jan-18 22:30N 51°58' E 004°04'0 0.0
2018-Jan-18 21:57N 51°58' E 004°04'0 0.0
2018-Jan-18 21:30N 51°58' E 004°04'0 0.0
2018-Jan-18 21:00N 51°58' E 004°04'0 0.0
2018-Jan-18 20:30N 51°58' E 004°04'0 0.0
2018-Jan-18 20:00N 51°58' E 004°04'0 0.0
2018-Jan-18 19:30N 51°58' E 004°04'0 0.0
2018-Jan-18 18:57N 51°58' E 004°04'0 0.0
2018-Jan-18 18:30N 51°58' E 004°04'0 0.0
2018-Jan-18 18:00N 51°58' E 004°04'1 2.7
2018-Jan-18 17:30N 51°59' E 004°05'4 8.7
2018-Jan-18 17:00N 52°00' E 003°59'816.3
2018-Jan-18 16:30N 52°03' E 003°46'2 4.7
2018-Jan-18 16:00N 52°04' E 003°42'510.8
2018-Jan-18 15:30N 52°06' E 003°35'713.1
2018-Jan-18 15:00N 52°09' E 003°25'  
2018-Jan-12 10:54N 35°58' W 005°55'718.3
2018-Jan-12 10:29N 35°58' W 005°46'816.7
2018-Jan-12 10:00N 35°57' W 005°36'612.2
2018-Jan-12 09:30N 35°54' W 005°30'0 0.4
2018-Jan-12 08:56N 35°54' W 005°29'0 0.0
2018-Jan-12 08:30N 35°54' W 005°29'0 0.0
2018-Jan-12 07:59N 35°54' W 005°29'0 0.0
2018-Jan-12 07:29N 35°54' W 005°29'0 0.0
2018-Jan-12 06:53N 35°54' W 005°29'0 0.0
2018-Jan-12 06:30N 35°54' W 005°29'0 0.0
2018-Jan-12 05:59N 35°54' W 005°29'0 0.0
2018-Jan-12 05:30N 35°54' W 005°29'0 0.0
2018-Jan-12 04:59N 35°54' W 005°29'0 0.0
2018-Jan-12 04:26N 35°54' W 005°29'0 0.0
2018-Jan-12 04:00N 35°54' W 005°29'0 0.0
2018-Jan-12 03:29N 35°54' W 005°29'0 0.0
2018-Jan-12 02:59N 35°54' W 005°29'0 0.0
2018-Jan-12 02:30N 35°54' W 005°29'0 0.0
2018-Jan-12 01:59N 35°54' W 005°29'0 0.0
2018-Jan-12 01:29N 35°54' W 005°29'0 0.0
2018-Jan-12 00:59N 35°54' W 005°29'0 0.0
2018-Jan-12 00:30N 35°54' W 005°29'0 0.4
2018-Jan-12 00:01N 35°54' W 005°30'2 3.5
2018-Jan-11 23:30N 35°55' W 005°31'2 4.3
2018-Jan-11 23:00N 35°54' W 005°34'1 1.1
2018-Jan-11 22:30N 35°54' W 005°34'1 1.2
2018-Jan-11 21:58N 35°54' W 005°34'1 1.2
2018-Jan-11 21:29N 35°54' W 005°34'1 1.3
2018-Jan-11 21:00N 35°54' W 005°34'2 4.3
2018-Jan-11 20:28N 35°56' W 005°31'510.6
2018-Jan-11 20:00N 35°59' W 005°27'5 9.7
2018-Jan-11 19:30N 36°00' W 005°21'4 8.9
2018-Jan-11 19:00N 36°02' W 005°16'4 7.0
2018-Jan-11 18:30N 36°00' W 005°12'5 9.9
2018-Jan-11 17:59N 35°58' W 005°06'510.3
2018-Jan-11 17:30N 35°58' W 004°60'1 2.3
2018-Jan-11 16:57N 35°58' W 005°01'1 2.7
2018-Jan-11 16:29N 35°58' W 005°03'2 3.2
2018-Jan-11 15:59N 35°58' W 005°05'2 3.3
2018-Jan-11 15:30N 35°59' W 005°07'2 3.4
2018-Jan-11 15:00N 35°59' W 005°09'2 3.6
2018-Jan-11 14:29N 35°59' W 005°11'2 5.0
2018-Jan-11 14:00N 35°59' W 005°14'713.4
2018-Jan-11 13:31N 35°58' W 005°22'713.8
2018-Jan-11 13:00N 35°56' W 005°30'3 6.5
2018-Jan-11 12:30N 35°54' W 005°34'4 7.3
2018-Jan-11 12:00N 35°57' W 005°32'510.4
2018-Jan-11 11:30N 35°59' W 005°26'510.1
2018-Jan-11 11:00N 36°01' W 005°20'510.9
2018-Jan-11 10:30N 36°02' W 005°13'611.5
2018-Jan-11 10:00N 36°04' W 005°06'611.7
2018-Jan-11 09:31N 36°05' W 004°59'714.4
2018-Jan-11 09:00N 36°06' W 004°50'817.2
2018-Jan-11 08:30N 36°08' W 004°40'1019.2
2018-Jan-11 08:00N 36°09' W 004°28'  

Dump ship's entire track history